Time;durP1;ratioP1;P1;durP2;ratioP2;P2;SDS_P1;SDS_P2;PMS_P1;PMS_P2;Temp;Humidity;BMP_temperature;BMP_pressure;BME280_temperature;BME280_humidity;BME280_pressure;Samples;Min_cycle;Max_cycle;Signal;HPM_P1;HPM_P2
2022/02/06 00:00:09;;;;;;;1.17;0.70;;;22.90;51.40;;;;;;6236669;23;20384;-85
2022/02/06 00:03:02;;;;;;;;;;;;;;;;;;;;;
2022/02/06 00:05:38;;;;;;;1.00;0.80;;;22.90;51.40;;;;;;6263738;23;20378;-85
2022/02/06 00:15:38;;;;;;;1.43;0.80;;;22.90;51.40;;;;;;6111773;23;20460;-85
2022/02/06 00:18:23;;;;;;;;;;;;;;;;;;;;;
2022/02/06 00:31:08;;;;;;;1.10;0.80;;;22.80;51.50;;;;;;6106787;23;20370;-85
2022/02/06 00:34:13;;;;;;;;;;;;;;;;;;;;;
2022/02/06 00:39:33;;;;;;;0.90;0.80;;;22.80;51.50;;;;;;6107814;23;20361;-86
2022/02/06 00:42:49;;;;;;;1.00;0.80;;;22.80;51.50;;;;;;6210633;23;20385;-86
2022/02/06 00:45:21;;;;;;;1.00;0.90;;;22.90;51.50;;;;;;6216108;23;20389;-86
2022/02/06 00:47:50;;;;;;;1.10;1.00;;;22.80;51.40;;;;;;6234598;23;20377;-85
2022/02/06 00:50:46;;;;;;;1.07;0.80;;;22.80;51.50;;;;;;6264896;23;20354;-86
2022/02/06 00:53:20;;;;;;;1.10;0.90;;;22.80;51.50;;;;;;6234483;23;20376;-87
2022/02/06 01:20:41;;;;;;;1.00;0.80;;;22.80;51.50;;;;;;5966384;24;20365;-85
2022/02/06 01:32:43;;;;;;;1.43;0.90;;;22.80;51.50;;;;;;6077138;23;20465;-85
2022/02/06 01:35:14;;;;;;;1.07;0.80;;;22.80;51.50;;;;;;6055501;23;20433;-85
2022/02/06 01:38:26;;;;;;;1.03;0.67;;;22.80;51.50;;;;;;6055759;23;20889;-85
2022/02/06 02:27:40;;;;;;;0.90;0.77;;;22.70;51.80;;;;;;6237869;23;20397;-85
2022/02/06 02:33:41;;;;;;;1.10;0.80;;;22.70;51.80;;;;;;6261649;23;20349;-84
2022/02/06 02:46:38;;;;;;;1.00;0.70;;;22.70;51.80;;;;;;6260785;23;20369;-84
2022/02/06 02:58:59;;;;;;;0.97;0.70;;;22.60;51.70;;;;;;6270645;23;20381;-83
2022/02/06 03:04:35;;;;;;;1.00;0.70;;;22.60;51.70;;;;;;6260091;23;20925;-83
2022/02/06 03:07:03;;;;;;;1.00;0.80;;;22.70;51.80;;;;;;6232702;23;20381;-84
2022/02/06 03:09:37;;;;;;;0.90;0.73;;;22.60;51.70;;;;;;6232579;23;20381;-83
2022/02/06 03:12:25;;;;;;;0.93;0.70;;;22.60;51.70;;;;;;6233260;23;20373;-83
2022/02/06 03:15:20;;;;;;;1.10;1.00;;;22.60;51.70;;;;;;6231225;23;20417;-84
2022/02/06 03:17:57;;;;;;;1.00;0.90;;;22.60;51.70;;;;;;6233677;23;20373;-84
2022/02/06 03:20:24;;;;;;;1.30;0.80;;;22.60;51.70;;;;;;6233246;23;20835;-84
2022/02/06 03:22:53;;;;;;;1.10;0.80;;;22.60;51.70;;;;;;6232390;23;20730;-83
2022/02/06 03:25:24;;;;;;;0.90;0.60;;;22.60;51.70;;;;;;6233194;23;20392;-82
2022/02/06 03:27:54;;;;;;;1.37;0.70;;;22.60;51.70;;;;;;6232864;23;20377;-83
2022/02/06 03:30:33;;;;;;;0.90;0.70;;;22.60;51.70;;;;;;6232214;23;20393;-84
2022/02/06 03:33:02;;;;;;;1.00;0.77;;;22.70;51.80;;;;;;6230441;23;20441;-84
2022/02/06 03:35:31;;;;;;;2.03;0.70;;;22.70;51.80;;;;;;6229645;23;20436;-84
2022/02/06 03:38:00;;;;;;;0.80;0.60;;;22.60;51.60;;;;;;6228290;23;20373;-84
2022/02/06 03:40:28;;;;;;;1.50;0.70;;;22.60;51.60;;;;;;6229403;23;20408;-84
2022/02/06 03:43:16;;;;;;;1.00;0.70;;;22.60;51.70;;;;;;6228556;23;20382;-84
2022/02/06 03:45:47;;;;;;;0.90;0.60;;;22.60;51.60;;;;;;6256689;23;20368;-84
2022/02/06 03:48:26;;;;;;;1.00;0.70;;;22.60;51.60;;;;;;6257104;23;20376;-83
2022/02/06 03:51:16;;;;;;;;;;;;;;;;;;;;;
2022/02/06 03:53:44;;;;;;;1.30;0.73;;;22.60;51.60;;;;;;6256753;23;20448;-84
2022/02/06 03:56:13;;;;;;;1.20;0.80;;;22.60;51.60;;;;;;6229575;23;20397;-85
2022/02/06 03:58:38;;;;;;;1.03;0.80;;;22.60;51.60;;;;;;6257198;23;20394;-85
2022/02/06 04:01:04;;;;;;;1.00;0.77;;;22.60;51.60;;;;;;6228873;23;20747;-84
2022/02/06 04:03:33;;;;;;;0.90;0.70;;;22.60;51.60;;;;;;6255083;23;20143;-85
2022/02/06 04:05:59;;;;;;;0.80;0.60;;;22.60;51.60;;;;;;6228988;23;20439;-85
2022/02/06 04:08:30;;;;;;;0.90;0.70;;;22.60;51.60;;;;;;6229599;23;20389;-85
2022/02/06 04:11:13;;;;;;;0.97;0.70;;;22.60;51.60;;;;;;6250196;23;20360;-84
2022/02/06 04:13:53;;;;;;;1.20;0.80;;;22.60;51.60;;;;;;6235097;23;20389;-84
2022/02/06 04:16:39;;;;;;;1.10;0.80;;;22.60;51.60;;;;;;6262563;23;20393;-85
2022/02/06 04:19:27;;;;;;;1.17;0.70;;;22.50;51.50;;;;;;6235998;23;20393;-85
2022/02/06 04:29:01;;;;;;;0.90;0.60;;;22.50;51.60;;;;;;6211337;23;20375;-84
2022/02/06 04:34:54;;;;;;;0.90;0.70;;;22.50;51.60;;;;;;6262771;23;20506;-84
2022/02/06 04:37:49;;;;;;;;;;;;;;;;;;;;;
2022/02/06 05:20:12;;;;;;;1.00;0.70;;;22.40;51.70;;;;;;6140150;23;20368;-84
2022/02/06 05:28:54;;;;;;;1.10;0.70;;;22.40;51.70;;;;;;6053164;23;20383;-84
2022/02/06 05:34:36;;;;;;;0.90;0.60;;;22.30;52.10;;;;;;6141253;23;20464;-84
2022/02/06 05:37:02;;;;;;;1.00;0.80;;;22.30;51.60;;;;;;6117363;23;20399;-85
2022/02/06 05:39:40;;;;;;;1.10;0.70;;;22.30;51.60;;;;;;6116942;23;20480;-85
2022/02/06 05:42:24;;;;;;;;;;;;;;;;;;;;;
2022/02/06 05:44:55;;;;;;;1.17;0.70;;;22.40;51.70;;;;;;6140487;23;20412;-84
2022/02/06 05:47:28;;;;;;;1.00;0.80;;;22.30;51.60;;;;;;6113506;23;20389;-84
2022/02/06 05:53:18;;;;;;;0.90;0.60;;;22.40;51.60;;;;;;6259556;23;20372;-84
2022/02/06 05:55:54;;;;;;;0.93;0.60;;;22.30;51.60;;;;;;6232182;23;20429;-83
2022/02/06 05:58:22;;;;;;;0.90;0.70;;;22.40;51.70;;;;;;6232832;23;20405;-83
2022/02/06 06:00:53;;;;;;;1.00;0.70;;;22.30;51.60;;;;;;6233311;23;20377;-83
2022/02/06 06:03:21;;;;;;;0.90;0.70;;;22.40;51.70;;;;;;6233307;23;20373;-83
2022/02/06 06:05:49;;;;;;;0.90;0.60;;;22.40;51.70;;;;;;6232690;23;20389;-83
2022/02/06 06:08:15;;;;;;;0.80;0.60;;;22.40;51.70;;;;;;6232771;23;20416;-83
2022/02/06 06:10:42;;;;;;;1.03;0.70;;;22.40;51.70;;;;;;6233190;23;20472;-85
2022/02/06 06:13:11;;;;;;;1.10;0.97;;;22.40;51.70;;;;;;6232385;23;20377;-84
2022/02/06 06:15:37;;;;;;;0.90;0.70;;;22.40;51.70;;;;;;6232579;23;20413;-84
2022/02/06 06:18:08;;;;;;;0.90;0.67;;;22.40;51.70;;;;;;6233111;23;20417;-84
2022/02/06 06:20:46;;;;;;;1.00;0.70;;;22.40;51.70;;;;;;6233065;23;20381;-84
2022/02/06 06:30:00;;;;;;;1.00;0.60;;;22.40;51.70;;;;;;6159142;23;20431;-84
2022/02/06 06:32:32;;;;;;;0.90;0.70;;;22.40;51.80;;;;;;6232753;23;20441;-84
2022/02/06 06:34:59;;;;;;;0.90;0.60;;;22.40;51.80;;;;;;6228344;23;20460;-84
2022/02/06 06:37:31;;;;;;;0.90;0.63;;;22.40;51.80;;;;;;6233326;23;20381;-84
2022/02/06 06:39:59;;;;;;;1.20;0.80;;;22.40;51.80;;;;;;6234633;23;20381;-84
2022/02/06 06:42:33;;;;;;;1.00;0.60;;;22.40;51.80;;;;;;6235160;23;20378;-84
2022/02/06 06:45:03;;;;;;;1.00;0.70;;;22.40;51.70;;;;;;6232708;23;20405;-84
2022/02/06 06:47:42;;;;;;;;;;;;;;;;;;;;;
2022/02/06 06:50:11;;;;;;;0.80;0.60;;;22.40;51.70;;;;;;6238337;23;20416;-84
2022/02/06 06:52:45;;;;;;;1.00;0.70;;;22.40;51.70;;;;;;6233214;23;20382;-84
2022/02/06 06:55:34;;;;;;;0.90;0.60;;;22.40;51.70;;;;;;6260832;23;20393;-84
2022/02/06 06:58:12;;;;;;;0.90;0.60;;;22.40;51.60;;;;;;6233020;23;20377;-83
2022/02/06 07:03:27;;;;;;;0.87;0.70;;;22.40;51.60;;;;;;6259545;23;20368;-83
2022/02/06 07:06:02;;;;;;;0.90;0.60;;;22.40;51.70;;;;;;6259305;23;20398;-84
2022/02/06 07:08:32;;;;;;;1.00;0.80;;;22.40;51.70;;;;;;6232416;23;20403;-84
2022/02/06 07:11:26;;;;;;;1.00;0.70;;;22.40;51.60;;;;;;6232632;23;20459;-84
2022/02/06 07:13:52;;;;;;;0.93;0.70;;;22.40;51.60;;;;;;6232725;23;20406;-84
2022/02/06 07:16:21;;;;;;;1.27;0.83;;;22.40;51.70;;;;;;6232976;23;20377;-83
2022/02/06 07:18:49;;;;;;;0.90;0.60;;;22.40;51.70;;;;;;6233644;23;20386;-83
2022/02/06 07:21:56;;;;;;;0.97;0.70;;;22.40;51.70;;;;;;6233676;23;20405;-83
2022/02/06 07:24:29;;;;;;;1.17;0.80;;;22.40;51.70;;;;;;6236873;23;20404;-84
2022/02/06 07:26:59;;;;;;;1.00;0.80;;;22.40;51.70;;;;;;6238071;23;20461;-84
2022/02/06 07:29:29;;;;;;;0.90;0.80;;;22.40;51.70;;;;;;6263394;23;20361;-85
2022/02/06 07:32:08;;;;;;;0.90;0.60;;;22.40;51.70;;;;;;6232479;23;20407;-86
2022/02/06 07:34:37;;;;;;;0.90;0.67;;;22.40;51.70;;;;;;6230958;23;20444;-85
2022/02/06 07:37:09;;;;;;;0.80;0.60;;;22.40;51.70;;;;;;6231749;23;20397;-86
2022/02/06 07:39:48;;;;;;;;;;;;;;;;;;;;;
2022/02/06 07:42:24;;;;;;;0.90;0.70;;;22.40;51.70;;;;;;6257802;23;20393;-86
2022/02/06 07:45:02;;;;;;;0.90;0.70;;;22.40;51.70;;;;;;6257841;23;20357;-85
2022/02/06 07:48:15;;;;;;;;;;;;;;;;;;;;;
2022/02/06 07:50:49;;;;;;;0.80;0.50;;;22.40;51.70;;;;;;6211203;23;20423;-86
2022/02/06 07:53:16;;;;;;;0.90;0.70;;;22.40;51.70;;;;;;6231889;23;20761;-86
2022/02/06 07:55:42;;;;;;;1.20;0.70;;;22.40;51.70;;;;;;6258954;23;20409;-85
2022/02/06 07:58:17;;;;;;;0.80;0.60;;;22.40;51.70;;;;;;6235736;23;20389;-85
2022/02/06 08:01:13;;;;;;;0.80;0.60;;;22.40;51.70;;;;;;6237364;23;20377;-86
2022/02/06 08:03:57;;;;;;;1.90;0.73;;;22.40;51.70;;;;;;6233165;23;20507;-86
2022/02/06 08:06:26;;;;;;;0.90;0.60;;;22.40;51.70;;;;;;6237397;23;20380;-86
2022/02/06 08:09:03;;;;;;;1.00;0.70;;;22.40;51.70;;;;;;6236349;23;20373;-83
2022/02/06 08:11:34;;;;;;;1.50;0.80;;;22.40;51.60;;;;;;6236347;23;20365;-83
2022/02/06 08:14:04;;;;;;;0.93;0.60;;;22.40;51.60;;;;;;6236158;23;20405;-83
2022/02/06 08:16:30;;;;;;;0.80;0.60;;;22.40;51.60;;;;;;6238716;23;20385;-84
2022/02/06 08:19:22;;;;;;;0.80;0.60;;;22.40;51.60;;;;;;6238768;23;20389;-83
2022/02/06 08:22:13;;;;;;;;;;;;;;;;;;;;;
2022/02/06 08:24:44;;;;;;;1.33;0.70;;;22.40;51.60;;;;;;6265480;23;20381;-82
2022/02/06 08:27:14;;;;;;;0.90;0.60;;;22.40;51.60;;;;;;6261171;23;20806;-84
2022/02/06 08:29:53;;;;;;;1.00;0.80;;;22.40;51.50;;;;;;6234251;23;20385;-84
2022/02/06 08:32:36;;;;;;;0.93;0.70;;;22.40;51.60;;;;;;6235602;23;20399;-84
2022/02/06 08:35:07;;;;;;;1.40;0.70;;;22.40;51.50;;;;;;6234747;23;20911;-84
2022/02/06 08:41:23;;;;;;;;;;;;;;;;;;;;;
2022/02/06 08:44:10;;;;;;;1.40;0.73;;;22.40;51.60;;;;;;6243590;23;20408;-83
2022/02/06 08:46:55;;;;;;;1.83;0.70;;;22.40;51.50;;;;;;6236638;23;20381;-84
2022/02/06 08:49:24;;;;;;;2.23;1.00;;;22.40;51.60;;;;;;6235613;23;20365;-85
2022/02/06 08:51:51;;;;;;;1.00;0.73;;;22.40;51.60;;;;;;6231973;23;20427;-86
2022/02/06 08:54:46;;;;;;;0.90;0.60;;;22.40;51.60;;;;;;6259796;23;20416;-86
2022/02/06 09:01:12;;;;;;;1.17;0.80;;;22.40;51.60;;;;;;6228010;23;20395;-82
2022/02/06 09:04:12;;;;;;;0.90;0.60;;;22.40;51.60;;;;;;6238123;23;20441;-85
2022/02/06 09:06:40;;;;;;;0.90;0.70;;;22.40;51.60;;;;;;6235766;23;20406;-86
2022/02/06 09:13:19;;;;;;;0.90;0.70;;;22.40;51.60;;;;;;6195891;23;20400;-84
2022/02/06 09:15:54;;;;;;;0.80;0.57;;;22.40;51.60;;;;;;6237400;23;20420;-83
2022/02/06 09:25:30;;;;;;;;;;;;;;;;;;;;;
2022/02/06 09:28:17;;;;;;;1.00;0.70;;;22.40;51.70;;;;;;6267564;23;20376;-87
2022/02/06 09:30:55;;;;;;;0.93;0.70;;;22.40;51.70;;;;;;6232963;23;20381;-85
2022/02/06 09:37:03;;;;;;;0.90;0.60;;;22.40;51.70;;;;;;6261194;23;20400;-86
2022/02/06 09:39:34;;;;;;;0.80;0.60;;;22.40;51.70;;;;;;6233239;23;20385;-85
2022/02/06 09:42:14;;;;;;;0.90;0.60;;;22.40;51.70;;;;;;6235131;23;20377;-85
2022/02/06 09:44:47;;;;;;;1.10;0.67;;;22.40;51.60;;;;;;6238232;23;20381;-85
2022/02/06 09:53:43;;;;;;;0.90;0.70;;;22.40;51.60;;;;;;6168543;23;20367;-86
2022/02/06 09:59:38;;;;;;;0.70;0.50;;;22.40;51.60;;;;;;6201809;23;20358;-85
2022/02/06 10:02:12;;;;;;;0.90;0.60;;;22.40;51.60;;;;;;6163583;23;20889;-85
2022/02/06 10:05:13;;;;;;;0.90;0.60;;;22.40;51.60;;;;;;6198223;23;20390;-84
2022/02/06 10:07:42;;;;;;;0.80;0.67;;;22.40;51.60;;;;;;6195101;23;20415;-86
2022/02/06 10:10:10;;;;;;;1.63;0.60;;;22.40;51.60;;;;;;6171995;23;20414;-86
2022/02/06 10:12:44;;;;;;;0.90;0.60;;;22.40;51.60;;;;;;6196425;23;20395;-85
2022/02/06 10:15:32;;;;;;;0.80;0.60;;;22.40;51.60;;;;;;6195936;23;20415;-86
2022/02/06 10:18:25;;;;;;;0.80;0.60;;;22.40;51.60;;;;;;6197599;23;20367;-87
2022/02/06 10:21:21;;;;;;;0.90;0.60;;;22.40;51.60;;;;;;6164989;23;20866;-86
2022/02/06 10:24:18;;;;;;;0.90;0.70;;;22.40;51.60;;;;;;6168249;23;20472;-86
2022/02/06 10:33:39;;;;;;;0.93;0.70;;;22.40;51.60;;;;;;6172547;23;20423;-86
2022/02/06 10:40:30;;;;;;;0.90;0.60;;;22.40;52.20;;;;;;6172724;23;20465;-86
2022/02/06 10:43:19;;;;;;;1.20;0.70;;;22.40;51.70;;;;;;6171608;23;20415;-85
2022/02/06 10:46:12;;;;;;;0.90;0.70;;;22.40;51.70;;;;;;6172422;23;20360;-85
2022/02/06 10:52:14;;;;;;;1.00;0.60;;;22.40;51.60;;;;;;6085091;23;20377;-85
2022/02/06 10:54:56;;;;;;;0.80;0.60;;;22.40;51.70;;;;;;6083443;23;20430;-84
2022/02/06 10:57:23;;;;;;;1.00;0.63;;;22.40;51.60;;;;;;6083659;23;20454;-86
2022/02/06 11:09:50;;;;;;;0.90;0.53;;;22.40;51.60;;;;;;6090953;23;20895;-85
2022/02/06 11:16:04;;;;;;;1.00;0.70;;;22.40;51.60;;;;;;6110976;23;20433;-85
2022/02/06 11:18:39;;;;;;;0.90;0.80;;;22.40;51.60;;;;;;6081941;23;20382;-85
2022/02/06 11:21:18;;;;;;;0.80;0.60;;;22.40;51.60;;;;;;6091198;23;20377;-85
2022/02/06 11:34:00;;;;;;;0.90;0.60;;;22.40;51.60;;;;;;6149212;23;20535;-85
2022/02/06 11:46:28;;;;;;;1.07;0.63;;;22.40;51.60;;;;;;6027865;23;20389;-84
2022/02/06 11:49:37;;;;;;;0.90;0.60;;;22.40;51.70;;;;;;6003047;23;20433;-84
2022/02/06 11:56:20;;;;;;;;;;;;;;;;;;;;;
2022/02/06 11:59:05;;;;;;;;;;;;;;;;;;;;;
2022/02/06 12:01:58;;;;;;;0.80;0.60;;;22.40;51.70;;;;;;6024458;23;20395;-84
2022/02/06 12:04:40;;;;;;;0.80;0.53;;;22.40;51.70;;;;;;6044002;23;20466;-83
2022/02/06 12:10:42;;;;;;;0.90;0.70;;;22.40;51.60;;;;;;6023967;23;20385;-83
2022/02/06 12:16:39;;;;;;;;;;;;;;;;;;;;;
2022/02/06 12:19:36;;;;;;;0.90;0.60;;;22.40;51.60;;;;;;6023385;23;20400;-83
2022/02/06 12:22:47;;;;;;;;;;;;;;;;;;;;;
2022/02/06 12:25:36;;;;;;;0.80;0.50;;;22.40;51.60;;;;;;6137326;23;20376;-82
2022/02/06 12:28:12;;;;;;;0.80;0.60;;;22.40;51.60;;;;;;6111839;23;20385;-85
2022/02/06 12:30:41;;;;;;;0.80;0.60;;;22.40;51.60;;;;;;6137149;23;20380;-82
2022/02/06 12:33:38;;;;;;;0.90;0.60;;;22.40;51.60;;;;;;6137596;23;20377;-82
2022/02/06 12:39:12;;;;;;;1.50;0.70;;;22.40;51.60;;;;;;6138994;23;20360;-83
2022/02/06 12:41:50;;;;;;;0.83;0.60;;;22.40;51.60;;;;;;6136800;23;20365;-83
2022/02/06 12:44:22;;;;;;;0.80;0.60;;;22.40;51.60;;;;;;6137523;23;20724;-83
2022/02/06 12:46:52;;;;;;;0.80;0.60;;;22.40;51.60;;;;;;6143667;23;20385;-83
2022/02/06 12:49:41;;;;;;;0.80;0.50;;;22.40;51.60;;;;;;6233547;23;20385;-85
2022/02/06 13:10:15;;;;;;;;;;;;;;;;;;;;;
2022/02/06 13:27:19;;;;;;;;;;;;;;;;;;;;;
2022/02/06 13:40:51;;;;;;;0.80;0.57;;;22.30;51.70;;;;;;5907942;24;20384;-84
2022/02/06 13:43:30;;;;;;;0.80;0.60;;;22.30;51.70;;;;;;5940903;24;20379;-85
2022/02/06 13:46:21;;;;;;;;;;;;;;;;;;;;;
2022/02/06 13:52:29;;;;;;;0.90;0.60;;;22.30;51.70;;;;;;5903893;24;20427;-82
2022/02/06 13:55:21;;;;;;;1.20;0.50;;;22.30;51.70;;;;;;5892911;24;20435;-82
2022/02/06 13:57:51;;;;;;;1.00;0.60;;;22.30;51.70;;;;;;5940390;24;20393;-82
2022/02/06 14:00:19;;;;;;;0.90;0.60;;;22.30;51.60;;;;;;5939947;24;20403;-82
2022/02/06 14:03:19;;;;;;;0.90;0.60;;;22.40;51.70;;;;;;5940462;24;20454;-83
2022/02/06 14:05:53;;;;;;;0.80;0.60;;;22.40;51.70;;;;;;5926619;24;20416;-82
2022/02/06 14:08:23;;;;;;;0.80;0.60;;;22.40;51.70;;;;;;5955928;23;20396;-86
2022/02/06 14:11:18;;;;;;;0.80;0.60;;;22.40;51.70;;;;;;6003874;23;20432;-84
2022/02/06 14:13:55;;;;;;;0.90;0.57;;;22.40;51.60;;;;;;6137455;23;20493;-86
2022/02/06 14:16:56;;;;;;;1.00;0.60;;;22.40;51.60;;;;;;6180063;23;20380;-84
2022/02/06 14:19:45;;;;;;;0.90;0.60;;;22.40;51.60;;;;;;6233260;23;20430;-86
2022/02/06 14:22:57;;;;;;;0.80;0.60;;;22.40;51.60;;;;;;6232317;23;20378;-85
2022/02/06 14:26:13;;;;;;;0.80;0.60;;;22.40;51.70;;;;;;6112327;23;20461;-85
2022/02/06 14:28:57;;;;;;;0.80;0.60;;;22.40;51.70;;;;;;6165388;23;20376;-86
2022/02/06 14:31:35;;;;;;;1.00;0.67;;;22.40;51.80;;;;;;6165196;23;20376;-86
2022/02/06 14:34:35;;;;;;;1.00;0.70;;;22.40;51.70;;;;;;6167104;23;20429;-84
2022/02/06 14:41:04;;;;;;;;;;;;;;;;;;;;;
2022/02/06 14:43:50;;;;;;;1.00;0.70;;;22.40;51.70;;;;;;6166245;23;20383;-85
2022/02/06 14:46:22;;;;;;;0.90;0.60;;;22.30;51.60;;;;;;6165030;23;20383;-86
2022/02/06 14:49:22;;;;;;;1.00;0.70;;;22.30;51.60;;;;;;6165111;23;20360;-85
2022/02/06 14:51:59;;;;;;;0.80;0.50;;;22.40;51.70;;;;;;6141540;23;20403;-84
2022/02/06 14:54:32;;;;;;;0.83;0.63;;;22.30;51.60;;;;;;6169608;23;20566;-83
2022/02/06 14:57:05;;;;;;;1.00;0.53;;;22.40;51.70;;;;;;6169860;23;20436;-83
2022/02/06 14:59:33;;;;;;;0.90;0.70;;;22.40;51.60;;;;;;6166912;23;20423;-82
2022/02/06 15:02:09;;;;;;;0.90;0.60;;;22.40;51.70;;;;;;6167808;23;20380;-82
2022/02/06 15:04:42;;;;;;;0.80;0.60;;;22.40;51.60;;;;;;6213587;23;20445;-84
2022/02/06 15:14:34;;;;;;;0.80;0.60;;;22.40;51.60;;;;;;6142557;23;20380;-83
2022/02/06 15:17:20;;;;;;;;;;;;;;;;;;;;;
2022/02/06 15:22:53;;;;;;;1.50;0.90;;;22.30;51.60;;;;;;6142441;23;20385;-85
2022/02/06 15:25:30;;;;;;;1.00;0.77;;;22.40;51.70;;;;;;6142414;23;20385;-84
2022/02/06 15:28:13;;;;;;;1.00;0.70;;;22.40;51.70;;;;;;6141819;23;20396;-83
2022/02/06 15:31:07;;;;;;;1.20;0.80;;;22.40;51.70;;;;;;6138991;23;20387;-84
2022/02/06 15:33:37;;;;;;;1.03;0.80;;;22.40;51.60;;;;;;6139007;23;20372;-84
2022/02/06 15:36:04;;;;;;;1.53;1.23;;;22.40;51.60;;;;;;6091021;23;20484;-83
2022/02/06 15:38:59;;;;;;;1.97;1.57;;;22.40;51.60;;;;;;6139650;23;20456;-83
2022/02/06 15:44:54;;;;;;;1.67;1.40;;;22.40;51.60;;;;;;6264199;23;20337;-83
2022/02/06 15:47:49;;;;;;;2.50;1.33;;;22.40;51.60;;;;;;6241225;23;20373;-83
2022/02/06 15:50:48;;;;;;;;;;;;;;;;;;;;;
2022/02/06 16:45:13;;;;;;;1.53;0.80;;;22.20;51.70;;;;;;5999626;23;20388;-85
2022/02/06 16:49:10;;;;;;;;;;;;;;;;;;;;;
2022/02/06 16:55:12;;;;;;;;;;;;;;;;;;;;;
2022/02/06 17:01:50;;;;;;;;;;;;;;;;;;;;;
2022/02/06 17:05:18;;;;;;;1.07;0.80;;;22.30;52.30;;;;;;5999168;24;20377;-85
2022/02/06 17:08:07;;;;;;;1.23;0.70;;;22.30;51.80;;;;;;5912305;24;20395;-85
2022/02/06 17:48:52;;;;;;;;;;;;;;;;;;;;;
2022/02/06 17:51:25;;;;;;;1.10;0.70;;;22.20;51.70;;;;;;5835126;24;20425;-85
2022/02/06 18:00:14;;;;;;;0.97;0.70;;;22.20;51.70;;;;;;5909390;24;20387;-86
2022/02/06 18:03:47;;;;;;;1.50;1.00;;;22.20;51.70;;;;;;5918277;24;20408;-85
2022/02/06 18:06:50;;;;;;;;;;;;;;;;;;;;;
2022/02/06 18:09:58;;;;;;;1.07;0.70;;;22.20;51.70;;;;;;5990198;24;20381;-85
2022/02/06 18:20:18;;;;;;;;;;;;;;;;;;;;;
2022/02/06 18:23:33;;;;;;;0.90;0.60;;;22.20;51.70;;;;;;6022307;23;20391;-85
2022/02/06 18:26:27;;;;;;;0.90;0.67;;;22.20;51.70;;;;;;6070292;23;20410;-85
2022/02/06 18:29:39;;;;;;;0.93;0.70;;;22.30;51.70;;;;;;6031058;23;20388;-84
2022/02/06 18:47:28;;;;;;;;;;;;;;;;;;;;;
2022/02/06 18:50:44;;;;;;;0.97;0.73;;;22.20;51.70;;;;;;5926897;24;20402;-86
2022/02/06 19:04:38;;;;;;;;;;;;;;;;;;;;;
2022/02/06 19:24:27;;;;;;;;;;;;;;;;;;;;;
2022/02/06 19:27:08;;;;;;;1.33;1.00;;;22.20;51.70;;;;;;5943104;24;20374;-85
2022/02/06 19:40:06;;;;;;;0.80;0.67;;;22.20;51.70;;;;;;5938497;24;20387;-84
2022/02/06 19:43:11;;;;;;;;;;;;;;;;;;;;;
2022/02/06 19:57:02;;;;;;;0.80;0.60;;;22.20;51.70;;;;;;5915767;24;20542;-86
2022/02/06 20:07:56;;;;;;;;;;;;;;;;;;;;;
2022/02/06 20:17:41;;;;;;;;;;;;;;;;;;;;;
2022/02/06 20:24:27;;;;;;;0.90;0.60;;;22.20;51.80;;;;;;5865305;24;20383;-86
2022/02/06 20:49:32;;;;;;;;;;;;;;;;;;;;;
2022/02/06 20:52:24;;;;;;;;;;;;;;;;;;;;;
2022/02/06 20:55:10;;;;;;;1.07;0.67;;;22.20;51.80;;;;;;5755661;25;20483;-86
2022/02/06 21:08:00;;;;;;;0.80;0.60;;;22.20;51.80;;;;;;5948571;24;20428;-86
2022/02/06 21:10:40;;;;;;;1.10;0.70;;;22.20;51.80;;;;;;5966798;24;20438;-87
2022/02/06 21:17:30;;;;;;;;;;;;;;;;;;;;;
2022/02/06 21:20:12;;;;;;;0.97;0.70;;;22.20;51.70;;;;;;5997057;24;20401;-84
2022/02/06 21:22:46;;;;;;;0.80;0.60;;;22.20;51.70;;;;;;5995882;24;20936;-84
2022/02/06 21:25:22;;;;;;;0.80;0.60;;;22.20;51.70;;;;;;5996388;24;20480;-85
2022/02/06 21:28:26;;;;;;;;;;;;;;;;;;;;;
2022/02/06 21:38:10;;;;;;;;;;;;;;;;;;;;;
2022/02/06 21:40:59;;;;;;;0.90;0.60;;;22.20;52.20;;;;;;6035057;23;20405;-85
2022/02/06 22:01:13;;;;;;;0.93;0.60;;;22.20;51.70;;;;;;6026845;23;20364;-86
2022/02/06 22:04:07;;;;;;;1.13;0.70;;;22.20;51.70;;;;;;6026850;23;20424;-87
2022/02/06 22:07:03;;;;;;;;;;;;;;;;;;;;;
2022/02/06 22:29:25;;;;;;;;;;;;;;;;;;;;;
2022/02/06 22:32:00;;;;;;;1.10;0.70;;;22.20;51.70;;;;;;5894407;24;20418;-86
2022/02/06 22:34:35;;;;;;;0.80;0.60;;;22.20;51.60;;;;;;5965559;24;20429;-86
2022/02/06 22:37:29;;;;;;;;;;;;;;;;;;;;;
2022/02/06 22:43:00;;;;;;;;;;;;;;;;;;;;;
2022/02/06 22:48:15;;;;;;;1.00;0.63;;;22.30;51.70;;;;;;6022878;23;20358;-85
2022/02/06 22:50:51;;;;;;;0.90;0.60;;;22.20;51.60;;;;;;6021039;23;20389;-85
2022/02/06 22:54:16;;;;;;;0.90;0.63;;;22.30;51.60;;;;;;6021054;23;20392;-85
2022/02/06 22:57:51;;;;;;;;;;;;;;;;;;;;;
2022/02/06 23:00:43;;;;;;;;;;;;;;;;;;;;;
2022/02/06 23:03:48;;;;;;;;;;;;;;;;;;;;;
2022/02/06 23:06:27;;;;;;;;;;;;;;;;;;;;;
2022/02/06 23:12:43;;;;;;;;;;;;;;;;;;;;;
2022/02/06 23:18:15;;;;;;;0.93;0.70;;;22.30;51.60;;;;;;6238217;23;20388;-84
2022/02/06 23:21:06;;;;;;;;;;;;;;;;;;;;;
2022/02/06 23:23:53;;;;;;;0.83;0.63;;;22.30;51.50;;;;;;6259416;23;20381;-84
2022/02/06 23:26:27;;;;;;;0.80;0.60;;;22.30;52.00;;;;;;6231501;23;20899;-84
2022/02/06 23:29:04;;;;;;;;;;;;;;;;;;;;;
2022/02/06 23:31:42;;;;;;;;;;;;;;;;;;;;;
2022/02/06 23:34:27;;;;;;;;;;;;;;;;;;;;;
2022/02/06 23:36:58;;;;;;;0.80;0.60;;;22.30;51.40;;;;;;6258415;23;20386;-84
2022/02/06 23:42:32;;;;;;;0.80;0.60;;;22.30;51.30;;;;;;6242754;23;20851;-85
2022/02/06 23:45:04;;;;;;;0.80;0.53;;;22.30;51.30;;;;;;6231944;23;20443;-85
2022/02/06 23:47:40;;;;;;;0.80;0.60;;;22.30;51.30;;;;;;6232640;23;20377;-85
2022/02/06 23:50:12;;;;;;;0.80;0.57;;;22.40;51.40;;;;;;6258381;23;20364;-85
2022/02/06 23:52:48;;;;;;;0.80;0.60;;;22.30;51.30;;;;;;6259267;23;20349;-85
2022/02/06 23:55:33;;;;;;;0.80;0.63;;;22.30;51.30;;;;;;6231779;23;20423;-85
2022/02/06 23:58:07;;;;;;;0.90;0.63;;;22.30;51.30;;;;;;6258568;23;20368;-85
